sensor_id;sensor_type;location;lat;lon;timestamp;temperature;humidity
52709;DHT22;38606;52.986;6.980;2023-05-10T00:01:21;14.50;99.90
52709;DHT22;38606;52.986;6.980;2023-05-10T00:03:47;14.70;99.90
52709;DHT22;38606;52.986;6.980;2023-05-10T00:06:13;14.70;99.90
52709;DHT22;38606;52.986;6.980;2023-05-10T00:08:38;14.70;99.90
52709;DHT22;38606;52.986;6.980;2023-05-10T00:11:04;14.50;99.90
52709;DHT22;38606;52.986;6.980;2023-05-10T00:13:30;14.50;99.90
52709;DHT22;38606;52.986;6.980;2023-05-10T00:15:56;14.50;99.90
52709;DHT22;38606;52.986;6.980;2023-05-10T00:18:22;14.60;99.90
52709;DHT22;38606;52.986;6.980;2023-05-10T00:20:48;14.90;99.90
52709;DHT22;38606;52.986;6.980;2023-05-10T00:23:14;14.50;99.90
52709;DHT22;38606;52.986;6.980;2023-05-10T00:25:40;14.50;99.90
52709;DHT22;38606;52.986;6.980;2023-05-10T00:28:05;14.70;99.90
52709;DHT22;38606;52.986;6.980;2023-05-10T00:30:31;14.50;99.90
52709;DHT22;38606;52.986;6.980;2023-05-10T00:32:57;14.30;99.90
52709;DHT22;38606;52.986;6.980;2023-05-10T00:35:23;14.30;99.90
52709;DHT22;38606;52.986;6.980;2023-05-10T00:37:49;14.40;99.90
52709;DHT22;38606;52.986;6.980;2023-05-10T00:40:14;14.30;99.90
52709;DHT22;38606;52.986;6.980;2023-05-10T00:42:40;14.30;99.90
52709;DHT22;38606;52.986;6.980;2023-05-10T00:45:06;14.30;99.90
52709;DHT22;38606;52.986;6.980;2023-05-10T00:47:32;14.10;99.90
52709;DHT22;38606;52.986;6.980;2023-05-10T00:49:59;14.10;99.90
52709;DHT22;38606;52.986;6.980;2023-05-10T00:52:29;14.30;99.90
52709;DHT22;38606;52.986;6.980;2023-05-10T00:54:55;14.20;99.90
52709;DHT22;38606;52.986;6.980;2023-05-10T00:57:22;13.70;99.90
52709;DHT22;38606;52.986;6.980;2023-05-10T00:59:48;13.90;99.90
52709;DHT22;38606;52.986;6.980;2023-05-10T01:02:14;13.70;99.90
52709;DHT22;38606;52.986;6.980;2023-05-10T01:04:39;14.00;99.90
52709;DHT22;38606;52.986;6.980;2023-05-10T01:07:06;14.00;99.90
52709;DHT22;38606;52.986;6.980;2023-05-10T01:09:32;13.60;99.90
52709;DHT22;38606;52.986;6.980;2023-05-10T01:11:59;13.80;99.90
52709;DHT22;38606;52.986;6.980;2023-05-10T01:14:26;13.80;99.90
52709;DHT22;38606;52.986;6.980;2023-05-10T01:16:52;13.70;99.90
52709;DHT22;38606;52.986;6.980;2023-05-10T01:19:22;13.70;99.90
52709;DHT22;38606;52.986;6.980;2023-05-10T01:30:22;13.60;99.90
52709;DHT22;38606;52.986;6.980;2023-05-10T01:33:01;13.50;99.90
52709;DHT22;38606;52.986;6.980;2023-05-10T01:35:38;13.60;99.90
52709;DHT22;38606;52.986;6.980;2023-05-10T01:46:40;13.40;99.90
52709;DHT22;38606;52.986;6.980;2023-05-10T01:49:26;13.60;99.90
52709;DHT22;38606;52.986;6.980;2023-05-10T01:51:54;13.60;99.90
52709;DHT22;38606;52.986;6.980;2023-05-10T01:54:22;13.80;99.90
52709;DHT22;38606;52.986;6.980;2023-05-10T01:56:55;13.60;99.90
52709;DHT22;38606;52.986;6.980;2023-05-10T01:59:22;13.60;99.90
52709;DHT22;38606;52.986;6.980;2023-05-10T02:01:51;13.50;99.90
52709;DHT22;38606;52.986;6.980;2023-05-10T02:04:19;15.50;99.90
52709;DHT22;38606;52.986;6.980;2023-05-10T02:06:47;13.50;99.90
52709;DHT22;38606;52.986;6.980;2023-05-10T02:09:14;13.60;99.90
52709;DHT22;38606;52.986;6.980;2023-05-10T02:11:43;13.70;99.90
52709;DHT22;38606;52.986;6.980;2023-05-10T02:14:11;13.40;99.90
52709;DHT22;38606;52.986;6.980;2023-05-10T02:16:38;13.50;99.90
52709;DHT22;38606;52.986;6.980;2023-05-10T02:19:04;13.70;99.90
52709;DHT22;38606;52.986;6.980;2023-05-10T02:21:31;13.70;99.90
52709;DHT22;38606;52.986;6.980;2023-05-10T02:23:59;13.60;99.90
52709;DHT22;38606;52.986;6.980;2023-05-10T02:26:26;13.60;99.90
52709;DHT22;38606;52.986;6.980;2023-05-10T02:28:53;13.70;99.90
52709;DHT22;38606;52.986;6.980;2023-05-10T02:31:21;13.80;99.90
52709;DHT22;38606;52.986;6.980;2023-05-10T02:33:47;13.40;99.90
52709;DHT22;38606;52.986;6.980;2023-05-10T02:36:14;13.40;99.90
52709;DHT22;38606;52.986;6.980;2023-05-10T02:38:41;13.50;99.90
52709;DHT22;38606;52.986;6.980;2023-05-10T02:41:08;13.60;99.90
52709;DHT22;38606;52.986;6.980;2023-05-10T02:43:37;13.60;99.90
52709;DHT22;38606;52.986;6.980;2023-05-10T02:46:04;13.30;99.90
52709;DHT22;38606;52.986;6.980;2023-05-10T02:48:30;13.40;99.90
52709;DHT22;38606;52.986;6.980;2023-05-10T02:51:00;13.40;99.90
52709;DHT22;38606;52.986;6.980;2023-05-10T02:53:33;13.60;99.90
52709;DHT22;38606;52.986;6.980;2023-05-10T02:56:05;13.40;99.90
52709;DHT22;38606;52.986;6.980;2023-05-10T02:58:32;13.40;99.90
52709;DHT22;38606;52.986;6.980;2023-05-10T03:01:00;13.30;99.90
52709;DHT22;38606;52.986;6.980;2023-05-10T03:03:26;13.50;99.90
52709;DHT22;38606;52.986;6.980;2023-05-10T03:05:52;13.60;99.90
52709;DHT22;38606;52.986;6.980;2023-05-10T03:08:22;13.30;99.90
52709;DHT22;38606;52.986;6.980;2023-05-10T03:14:08;13.30;99.90
52709;DHT22;38606;52.986;6.980;2023-05-10T03:16:39;13.30;99.90
52709;DHT22;38606;52.986;6.980;2023-05-10T03:19:55;13.50;99.90
52709;DHT22;38606;52.986;6.980;2023-05-10T03:22:40;13.40;99.90
52709;DHT22;38606;52.986;6.980;2023-05-10T03:25:10;13.50;99.90
52709;DHT22;38606;52.986;6.980;2023-05-10T03:27:39;13.40;99.90
52709;DHT22;38606;52.986;6.980;2023-05-10T03:30:08;13.30;99.90
52709;DHT22;38606;52.986;6.980;2023-05-10T03:32:35;13.40;99.90
52709;DHT22;38606;52.986;6.980;2023-05-10T03:35:07;13.20;99.90
52709;DHT22;38606;52.986;6.980;2023-05-10T03:37:33;13.30;99.90
52709;DHT22;38606;52.986;6.980;2023-05-10T03:39:59;13.40;99.90
52709;DHT22;38606;52.986;6.980;2023-05-10T03:42:25;13.80;99.90
52709;DHT22;38606;52.986;6.980;2023-05-10T03:44:51;13.10;99.90
52709;DHT22;38606;52.986;6.980;2023-05-10T03:47:16;13.40;99.90
52709;DHT22;38606;52.986;6.980;2023-05-10T03:49:42;13.40;99.90
52709;DHT22;38606;52.986;6.980;2023-05-10T03:52:08;13.30;99.90
52709;DHT22;38606;52.986;6.980;2023-05-10T03:54:34;13.30;99.90
52709;DHT22;38606;52.986;6.980;2023-05-10T03:56:59;13.60;99.90
52709;DHT22;38606;52.986;6.980;2023-05-10T03:59:26;13.40;99.90
52709;DHT22;38606;52.986;6.980;2023-05-10T04:01:52;13.30;99.90
52709;DHT22;38606;52.986;6.980;2023-05-10T04:04:17;13.30;99.90
52709;DHT22;38606;52.986;6.980;2023-05-10T04:06:46;13.50;99.90
52709;DHT22;38606;52.986;6.980;2023-05-10T04:09:12;13.40;99.90
52709;DHT22;38606;52.986;6.980;2023-05-10T04:11:37;13.30;99.90
52709;DHT22;38606;52.986;6.980;2023-05-10T04:14:03;13.50;99.90
52709;DHT22;38606;52.986;6.980;2023-05-10T04:16:29;13.40;99.90
52709;DHT22;38606;52.986;6.980;2023-05-10T04:18:55;13.30;99.90
52709;DHT22;38606;52.986;6.980;2023-05-10T04:21:21;13.50;99.90
52709;DHT22;38606;52.986;6.980;2023-05-10T04:23:46;13.50;99.90
52709;DHT22;38606;52.986;6.980;2023-05-10T04:26:12;13.30;99.90
52709;DHT22;38606;52.986;6.980;2023-05-10T04:28:38;13.20;99.90
52709;DHT22;38606;52.986;6.980;2023-05-10T04:31:06;13.40;99.90
52709;DHT22;38606;52.986;6.980;2023-05-10T04:33:32;13.30;99.90
52709;DHT22;38606;52.986;6.980;2023-05-10T04:35:58;13.50;99.90
52709;DHT22;38606;52.986;6.980;2023-05-10T04:38:24;13.60;99.90
52709;DHT22;38606;52.986;6.980;2023-05-10T04:40:50;13.30;99.90
52709;DHT22;38606;52.986;6.980;2023-05-10T04:43:16;13.40;99.90
52709;DHT22;38606;52.986;6.980;2023-05-10T04:45:42;13.30;99.90
52709;DHT22;38606;52.986;6.980;2023-05-10T04:48:07;13.40;99.90
52709;DHT22;38606;52.986;6.980;2023-05-10T04:50:33;13.50;99.90
52709;DHT22;38606;52.986;6.980;2023-05-10T04:52:59;13.50;99.90
52709;DHT22;38606;52.986;6.980;2023-05-10T04:55:25;13.60;99.90
52709;DHT22;38606;52.986;6.980;2023-05-10T04:57:52;13.50;99.90
52709;DHT22;38606;52.986;6.980;2023-05-10T05:00:18;13.30;99.90
52709;DHT22;38606;52.986;6.980;2023-05-10T05:02:45;13.20;99.90
52709;DHT22;38606;52.986;6.980;2023-05-10T05:05:12;13.40;99.90
52709;DHT22;38606;52.986;6.980;2023-05-10T05:07:37;13.20;99.90
52709;DHT22;38606;52.986;6.980;2023-05-10T05:10:07;13.60;99.90
52709;DHT22;38606;52.986;6.980;2023-05-10T05:12:34;13.10;99.90
52709;DHT22;38606;52.986;6.980;2023-05-10T05:15:01;13.40;99.90
52709;DHT22;38606;52.986;6.980;2023-05-10T05:17:26;13.30;99.90
52709;DHT22;38606;52.986;6.980;2023-05-10T05:19:52;13.50;99.90
52709;DHT22;38606;52.986;6.980;2023-05-10T05:22:18;13.50;99.90
52709;DHT22;38606;52.986;6.980;2023-05-10T05:24:45;13.50;99.90
52709;DHT22;38606;52.986;6.980;2023-05-10T05:27:11;13.30;99.90
52709;DHT22;38606;52.986;6.980;2023-05-10T05:29:37;13.20;99.90
52709;DHT22;38606;52.986;6.980;2023-05-10T05:32:02;13.50;99.90
52709;DHT22;38606;52.986;6.980;2023-05-10T05:34:28;13.70;99.90
52709;DHT22;38606;52.986;6.980;2023-05-10T05:36:54;13.40;99.90
52709;DHT22;38606;52.986;6.980;2023-05-10T05:39:20;13.40;99.90
52709;DHT22;38606;52.986;6.980;2023-05-10T05:41:45;13.60;99.90
52709;DHT22;38606;52.986;6.980;2023-05-10T05:44:11;13.60;99.90
52709;DHT22;38606;52.986;6.980;2023-05-10T05:46:37;13.60;99.90
52709;DHT22;38606;52.986;6.980;2023-05-10T05:49:03;13.40;99.90
52709;DHT22;38606;52.986;6.980;2023-05-10T05:51:29;13.40;99.90
52709;DHT22;38606;52.986;6.980;2023-05-10T05:53:55;13.50;99.90
52709;DHT22;38606;52.986;6.980;2023-05-10T05:56:21;13.50;99.90
52709;DHT22;38606;52.986;6.980;2023-05-10T05:58:52;13.50;99.90
52709;DHT22;38606;52.986;6.980;2023-05-10T06:01:18;13.40;99.90
52709;DHT22;38606;52.986;6.980;2023-05-10T06:03:44;13.40;99.90
52709;DHT22;38606;52.986;6.980;2023-05-10T06:06:10;13.40;99.90
52709;DHT22;38606;52.986;6.980;2023-05-10T06:08:35;13.70;99.90
52709;DHT22;38606;52.986;6.980;2023-05-10T06:11:01;13.30;99.90
52709;DHT22;38606;52.986;6.980;2023-05-10T06:13:27;13.60;99.90
52709;DHT22;38606;52.986;6.980;2023-05-10T06:16:02;13.40;99.90
52709;DHT22;38606;52.986;6.980;2023-05-10T06:18:27;13.60;99.90
52709;DHT22;38606;52.986;6.980;2023-05-10T06:20:53;13.20;99.90
52709;DHT22;38606;52.986;6.980;2023-05-10T06:23:19;13.40;99.90
52709;DHT22;38606;52.986;6.980;2023-05-10T06:25:44;13.40;99.90
52709;DHT22;38606;52.986;6.980;2023-05-10T06:28:10;13.30;99.90
52709;DHT22;38606;52.986;6.980;2023-05-10T06:30:36;13.40;99.90
52709;DHT22;38606;52.986;6.980;2023-05-10T06:33:02;13.40;99.90
52709;DHT22;38606;52.986;6.980;2023-05-10T06:35:29;13.50;99.90
52709;DHT22;38606;52.986;6.980;2023-05-10T06:37:55;13.30;99.90
52709;DHT22;38606;52.986;6.980;2023-05-10T06:40:21;13.20;99.90
52709;DHT22;38606;52.986;6.980;2023-05-10T06:42:47;13.50;99.90
52709;DHT22;38606;52.986;6.980;2023-05-10T06:45:14;13.40;99.90
52709;DHT22;38606;52.986;6.980;2023-05-10T06:47:40;13.20;99.90
52709;DHT22;38606;52.986;6.980;2023-05-10T06:50:10;13.20;99.90
52709;DHT22;38606;52.986;6.980;2023-05-10T06:52:37;13.20;99.90
52709;DHT22;38606;52.986;6.980;2023-05-10T06:55:04;13.20;99.90
52709;DHT22;38606;52.986;6.980;2023-05-10T06:57:30;13.50;99.90
52709;DHT22;38606;52.986;6.980;2023-05-10T06:59:56;13.50;99.90
52709;DHT22;38606;52.986;6.980;2023-05-10T07:02:22;13.50;99.90
52709;DHT22;38606;52.986;6.980;2023-05-10T07:04:48;13.30;99.90
52709;DHT22;38606;52.986;6.980;2023-05-10T07:07:14;13.30;99.90
52709;DHT22;38606;52.986;6.980;2023-05-10T07:09:40;15.10;99.90
52709;DHT22;38606;52.986;6.980;2023-05-10T07:12:06;13.50;99.90
52709;DHT22;38606;52.986;6.980;2023-05-10T07:14:32;13.30;99.90
52709;DHT22;38606;52.986;6.980;2023-05-10T07:16:57;13.40;99.90
52709;DHT22;38606;52.986;6.980;2023-05-10T07:19:23;13.20;99.90
52709;DHT22;38606;52.986;6.980;2023-05-10T07:21:49;13.50;99.90
52709;DHT22;38606;52.986;6.980;2023-05-10T07:24:16;13.20;99.90
52709;DHT22;38606;52.986;6.980;2023-05-10T07:26:42;13.40;99.90
52709;DHT22;38606;52.986;6.980;2023-05-10T07:29:07;13.50;99.90
52709;DHT22;38606;52.986;6.980;2023-05-10T07:31:33;13.40;99.90
52709;DHT22;38606;52.986;6.980;2023-05-10T07:33:59;13.30;99.90
52709;DHT22;38606;52.986;6.980;2023-05-10T07:36:25;13.40;99.90
52709;DHT22;38606;52.986;6.980;2023-05-10T07:38:50;13.50;99.90
52709;DHT22;38606;52.986;6.980;2023-05-10T07:41:16;13.50;99.90
52709;DHT22;38606;52.986;6.980;2023-05-10T07:43:42;13.80;99.90
52709;DHT22;38606;52.986;6.980;2023-05-10T07:46:07;13.80;99.90
52709;DHT22;38606;52.986;6.980;2023-05-10T07:48:36;13.60;99.90
52709;DHT22;38606;52.986;6.980;2023-05-10T07:51:02;13.70;99.90
52709;DHT22;38606;52.986;6.980;2023-05-10T07:53:27;13.80;99.90
52709;DHT22;38606;52.986;6.980;2023-05-10T07:55:56;13.70;99.90
52709;DHT22;38606;52.986;6.980;2023-05-10T07:58:23;13.70;99.90
52709;DHT22;38606;52.986;6.980;2023-05-10T08:00:49;13.90;99.90
52709;DHT22;38606;52.986;6.980;2023-05-10T08:03:15;13.80;99.90
52709;DHT22;38606;52.986;6.980;2023-05-10T08:05:41;14.10;99.90
52709;DHT22;38606;52.986;6.980;2023-05-10T08:08:07;13.90;99.90
52709;DHT22;38606;52.986;6.980;2023-05-10T08:10:32;14.20;99.90
52709;DHT22;38606;52.986;6.980;2023-05-10T08:12:58;14.10;99.90
52709;DHT22;38606;52.986;6.980;2023-05-10T08:15:24;13.90;99.90
52709;DHT22;38606;52.986;6.980;2023-05-10T08:17:53;14.00;99.90
52709;DHT22;38606;52.986;6.980;2023-05-10T08:20:20;13.90;99.90
52709;DHT22;38606;52.986;6.980;2023-05-10T08:22:46;14.20;99.90
52709;DHT22;38606;52.986;6.980;2023-05-10T08:25:11;14.20;99.90
52709;DHT22;38606;52.986;6.980;2023-05-10T08:27:37;14.30;99.90
52709;DHT22;38606;52.986;6.980;2023-05-10T08:30:03;14.10;99.90
52709;DHT22;38606;52.986;6.980;2023-05-10T08:32:29;14.30;99.90
52709;DHT22;38606;52.986;6.980;2023-05-10T08:34:55;14.40;99.90
52709;DHT22;38606;52.986;6.980;2023-05-10T08:37:22;14.10;99.90
52709;DHT22;38606;52.986;6.980;2023-05-10T08:39:48;14.50;99.90
52709;DHT22;38606;52.986;6.980;2023-05-10T08:42:16;14.20;99.90
52709;DHT22;38606;52.986;6.980;2023-05-10T08:44:47;14.50;99.90
52709;DHT22;38606;52.986;6.980;2023-05-10T08:47:16;14.20;99.90
52709;DHT22;38606;52.986;6.980;2023-05-10T08:49:44;14.20;99.90
52709;DHT22;38606;52.986;6.980;2023-05-10T08:52:13;14.50;99.90
52709;DHT22;38606;52.986;6.980;2023-05-10T08:54:41;14.20;99.90
52709;DHT22;38606;52.986;6.980;2023-05-10T08:57:07;14.20;99.90
52709;DHT22;38606;52.986;6.980;2023-05-10T08:59:33;14.30;99.90
52709;DHT22;38606;52.986;6.980;2023-05-10T09:01:59;14.10;99.90
52709;DHT22;38606;52.986;6.980;2023-05-10T09:04:25;14.30;99.90
52709;DHT22;38606;52.986;6.980;2023-05-10T09:06:51;14.20;99.90
52709;DHT22;38606;52.986;6.980;2023-05-10T09:09:18;14.30;99.90
52709;DHT22;38606;52.986;6.980;2023-05-10T09:11:44;14.20;99.90
52709;DHT22;38606;52.986;6.980;2023-05-10T09:14:11;14.30;99.90
52709;DHT22;38606;52.986;6.980;2023-05-10T09:16:38;14.50;99.90
52709;DHT22;38606;52.986;6.980;2023-05-10T09:19:04;14.70;99.90
52709;DHT22;38606;52.986;6.980;2023-05-10T09:21:30;14.40;99.90
52709;DHT22;38606;52.986;6.980;2023-05-10T09:23:56;14.50;99.90
52709;DHT22;38606;52.986;6.980;2023-05-10T09:26:23;13.80;99.90
52709;DHT22;38606;52.986;6.980;2023-05-10T09:28:52;14.60;99.90
52709;DHT22;38606;52.986;6.980;2023-05-10T09:31:19;14.60;99.90
52709;DHT22;38606;52.986;6.980;2023-05-10T09:33:46;14.50;99.90
52709;DHT22;38606;52.986;6.980;2023-05-10T09:36:13;14.80;99.90
52709;DHT22;38606;52.986;6.980;2023-05-10T09:38:49;14.80;99.90
52709;DHT22;38606;52.986;6.980;2023-05-10T09:41:17;14.90;99.90
52709;DHT22;38606;52.986;6.980;2023-05-10T09:43:43;14.70;99.90
52709;DHT22;38606;52.986;6.980;2023-05-10T09:46:09;14.90;99.90
52709;DHT22;38606;52.986;6.980;2023-05-10T09:48:42;14.80;99.90
52709;DHT22;38606;52.986;6.980;2023-05-10T09:51:08;15.10;99.90
52709;DHT22;38606;52.986;6.980;2023-05-10T09:53:33;15.10;99.90
52709;DHT22;38606;52.986;6.980;2023-05-10T09:55:59;15.10;99.90
52709;DHT22;38606;52.986;6.980;2023-05-10T09:58:25;15.20;99.90
52709;DHT22;38606;52.986;6.980;2023-05-10T10:00:51;15.20;99.90
52709;DHT22;38606;52.986;6.980;2023-05-10T10:03:20;15.20;99.90
52709;DHT22;38606;52.986;6.980;2023-05-10T10:05:47;15.30;99.90
52709;DHT22;38606;52.986;6.980;2023-05-10T10:08:14;15.50;99.90
52709;DHT22;38606;52.986;6.980;2023-05-10T10:10:41;15.40;99.90
52709;DHT22;38606;52.986;6.980;2023-05-10T10:13:07;15.60;99.90
52709;DHT22;38606;52.986;6.980;2023-05-10T10:15:36;15.50;99.90
52709;DHT22;38606;52.986;6.980;2023-05-10T10:18:02;15.50;99.90
52709;DHT22;38606;52.986;6.980;2023-05-10T10:20:31;15.50;99.90
52709;DHT22;38606;52.986;6.980;2023-05-10T10:22:57;16.00;99.90
52709;DHT22;38606;52.986;6.980;2023-05-10T10:25:23;15.90;99.90
52709;DHT22;38606;52.986;6.980;2023-05-10T10:28:04;16.60;99.90
52709;DHT22;38606;52.986;6.980;2023-05-10T10:30:47;16.50;99.90
52709;DHT22;38606;52.986;6.980;2023-05-10T10:35:49;16.60;99.90
52709;DHT22;38606;52.986;6.980;2023-05-10T10:38:16;16.60;99.90
52709;DHT22;38606;52.986;6.980;2023-05-10T10:40:42;16.50;99.90
52709;DHT22;38606;52.986;6.980;2023-05-10T10:43:25;16.50;99.90
52709;DHT22;38606;52.986;6.980;2023-05-10T10:46:17;16.50;99.90
52709;DHT22;38606;52.986;6.980;2023-05-10T10:49:07;16.50;99.90
52709;DHT22;38606;52.986;6.980;2023-05-10T10:51:37;16.70;99.90
52709;DHT22;38606;52.986;6.980;2023-05-10T10:54:10;16.40;99.90
52709;DHT22;38606;52.986;6.980;2023-05-10T10:56:36;16.30;99.90
52709;DHT22;38606;52.986;6.980;2023-05-10T10:59:02;16.40;99.90
52709;DHT22;38606;52.986;6.980;2023-05-10T11:01:33;16.40;99.90
52709;DHT22;38606;52.986;6.980;2023-05-10T11:06:32;16.50;99.90
52709;DHT22;38606;52.986;6.980;2023-05-10T11:09:09;16.30;99.90
52709;DHT22;38606;52.986;6.980;2023-05-10T11:11:36;16.30;99.90
52709;DHT22;38606;52.986;6.980;2023-05-10T11:14:13;16.40;99.90
52709;DHT22;38606;52.986;6.980;2023-05-10T11:16:43;16.10;99.90
52709;DHT22;38606;52.986;6.980;2023-05-10T11:19:17;16.00;99.90
52709;DHT22;38606;52.986;6.980;2023-05-10T11:24:17;16.00;99.90
52709;DHT22;38606;52.986;6.980;2023-05-10T11:26:43;16.00;99.90
52709;DHT22;38606;52.986;6.980;2023-05-10T11:29:09;15.10;99.90
52709;DHT22;38606;52.986;6.980;2023-05-10T11:31:42;16.00;99.90
52709;DHT22;38606;52.986;6.980;2023-05-10T11:34:09;15.80;99.90
52709;DHT22;38606;52.986;6.980;2023-05-10T11:36:36;15.90;99.90
52709;DHT22;38606;52.986;6.980;2023-05-10T11:39:03;15.70;99.90
52709;DHT22;38606;52.986;6.980;2023-05-10T11:41:30;15.50;99.90
52709;DHT22;38606;52.986;6.980;2023-05-10T11:43:57;15.70;99.90
52709;DHT22;38606;52.986;6.980;2023-05-10T11:46:24;15.70;99.90
52709;DHT22;38606;52.986;6.980;2023-05-10T11:48:52;15.60;99.90
52709;DHT22;38606;52.986;6.980;2023-05-10T11:51:25;15.50;99.90
52709;DHT22;38606;52.986;6.980;2023-05-10T11:53:55;15.90;99.90
52709;DHT22;38606;52.986;6.980;2023-05-10T11:56:22;15.70;99.90
52709;DHT22;38606;52.986;6.980;2023-05-10T11:58:57;15.80;99.90
52709;DHT22;38606;52.986;6.980;2023-05-10T12:01:24;16.00;99.90
52709;DHT22;38606;52.986;6.980;2023-05-10T12:03:51;16.00;99.90
52709;DHT22;38606;52.986;6.980;2023-05-10T12:06:19;16.00;99.90
52709;DHT22;38606;52.986;6.980;2023-05-10T12:08:46;15.90;99.90
52709;DHT22;38606;52.986;6.980;2023-05-10T12:11:13;16.10;99.90
52709;DHT22;38606;52.986;6.980;2023-05-10T12:13:43;16.10;99.90
52709;DHT22;38606;52.986;6.980;2023-05-10T12:16:21;16.20;99.90
52709;DHT22;38606;52.986;6.980;2023-05-10T12:18:50;16.00;99.90
52709;DHT22;38606;52.986;6.980;2023-05-10T12:21:18;16.20;99.90
52709;DHT22;38606;52.986;6.980;2023-05-10T12:23:46;16.20;99.90
52709;DHT22;38606;52.986;6.980;2023-05-10T12:26:12;16.10;99.90
52709;DHT22;38606;52.986;6.980;2023-05-10T12:28:38;16.30;99.90
52709;DHT22;38606;52.986;6.980;2023-05-10T12:31:07;16.50;99.90
52709;DHT22;38606;52.986;6.980;2023-05-10T12:33:37;16.40;99.90
52709;DHT22;38606;52.986;6.980;2023-05-10T12:36:14;16.10;99.90
52709;DHT22;38606;52.986;6.980;2023-05-10T12:38:44;16.40;99.90
52709;DHT22;38606;52.986;6.980;2023-05-10T12:41:17;16.50;99.90
52709;DHT22;38606;52.986;6.980;2023-05-10T12:43:44;16.50;99.90
52709;DHT22;38606;52.986;6.980;2023-05-10T12:46:12;16.30;99.90
52709;DHT22;38606;52.986;6.980;2023-05-10T12:48:39;16.30;99.90
52709;DHT22;38606;52.986;6.980;2023-05-10T12:51:06;16.40;99.90
52709;DHT22;38606;52.986;6.980;2023-05-10T12:53:35;16.50;99.90
52709;DHT22;38606;52.986;6.980;2023-05-10T12:56:01;16.40;99.90
52709;DHT22;38606;52.986;6.980;2023-05-10T12:58:27;17.40;99.90
52709;DHT22;38606;52.986;6.980;2023-05-10T13:00:53;16.50;99.90
52709;DHT22;38606;52.986;6.980;2023-05-10T13:03:19;16.40;99.90
52709;DHT22;38606;52.986;6.980;2023-05-10T13:05:45;16.20;99.90
52709;DHT22;38606;52.986;6.980;2023-05-10T13:08:11;16.10;99.90
52709;DHT22;38606;52.986;6.980;2023-05-10T13:10:36;15.90;99.90
52709;DHT22;38606;52.986;6.980;2023-05-10T13:13:02;16.00;99.90
52709;DHT22;38606;52.986;6.980;2023-05-10T13:15:28;15.90;99.90
52709;DHT22;38606;52.986;6.980;2023-05-10T13:17:54;15.20;99.90
52709;DHT22;38606;52.986;6.980;2023-05-10T13:20:20;16.10;99.90
52709;DHT22;38606;52.986;6.980;2023-05-10T13:22:46;16.10;99.90
52709;DHT22;38606;52.986;6.980;2023-05-10T13:25:12;15.90;99.90
52709;DHT22;38606;52.986;6.980;2023-05-10T13:27:42;16.00;99.90
52709;DHT22;38606;52.986;6.980;2023-05-10T13:30:08;16.00;99.90
52709;DHT22;38606;52.986;6.980;2023-05-10T13:32:35;16.00;99.90
52709;DHT22;38606;52.986;6.980;2023-05-10T13:35:01;16.20;99.90
52709;DHT22;38606;52.986;6.980;2023-05-10T13:37:29;16.30;99.90
52709;DHT22;38606;52.986;6.980;2023-05-10T13:39:55;16.20;99.90
52709;DHT22;38606;52.986;6.980;2023-05-10T13:42:22;16.60;99.90
52709;DHT22;38606;52.986;6.980;2023-05-10T13:44:49;17.00;99.90
52709;DHT22;38606;52.986;6.980;2023-05-10T13:47:15;16.90;99.90
52709;DHT22;38606;52.986;6.980;2023-05-10T13:49:41;16.80;99.90
52709;DHT22;38606;52.986;6.980;2023-05-10T13:52:07;17.10;99.90
52709;DHT22;38606;52.986;6.980;2023-05-10T13:54:33;17.10;99.90
52709;DHT22;38606;52.986;6.980;2023-05-10T13:57:00;17.00;99.90
52709;DHT22;38606;52.986;6.980;2023-05-10T13:59:26;17.20;99.90
52709;DHT22;38606;52.986;6.980;2023-05-10T14:01:51;17.10;99.90
52709;DHT22;38606;52.986;6.980;2023-05-10T14:04:17;16.80;99.90
52709;DHT22;38606;52.986;6.980;2023-05-10T14:06:43;16.80;99.90
52709;DHT22;38606;52.986;6.980;2023-05-10T14:09:09;16.80;99.90
52709;DHT22;38606;52.986;6.980;2023-05-10T14:11:35;16.50;99.90
52709;DHT22;38606;52.986;6.980;2023-05-10T14:14:01;16.20;99.90
52709;DHT22;38606;52.986;6.980;2023-05-10T14:16:26;16.70;99.90
52709;DHT22;38606;52.986;6.980;2023-05-10T14:18:52;16.50;99.90
52709;DHT22;38606;52.986;6.980;2023-05-10T14:21:18;16.50;99.90
52709;DHT22;38606;52.986;6.980;2023-05-10T14:23:44;16.60;99.90
52709;DHT22;38606;52.986;6.980;2023-05-10T14:26:09;16.50;99.90
52709;DHT22;38606;52.986;6.980;2023-05-10T14:28:35;16.60;99.90
52709;DHT22;38606;52.986;6.980;2023-05-10T14:31:01;18.10;99.90
52709;DHT22;38606;52.986;6.980;2023-05-10T14:33:27;16.60;99.90
52709;DHT22;38606;52.986;6.980;2023-05-10T14:35:54;16.80;99.90
52709;DHT22;38606;52.986;6.980;2023-05-10T14:38:22;16.60;99.90
52709;DHT22;38606;52.986;6.980;2023-05-10T14:40:48;16.60;99.90
52709;DHT22;38606;52.986;6.980;2023-05-10T14:43:14;16.50;99.90
52709;DHT22;38606;52.986;6.980;2023-05-10T14:45:40;16.20;99.90
52709;DHT22;38606;52.986;6.980;2023-05-10T14:48:06;16.30;99.90
52709;DHT22;38606;52.986;6.980;2023-05-10T14:50:36;16.40;99.90
52709;DHT22;38606;52.986;6.980;2023-05-10T14:53:02;16.50;99.90
52709;DHT22;38606;52.986;6.980;2023-05-10T14:55:28;16.40;99.90
52709;DHT22;38606;52.986;6.980;2023-05-10T14:57:53;16.70;99.90
52709;DHT22;38606;52.986;6.980;2023-05-10T15:00:20;16.50;99.90
52709;DHT22;38606;52.986;6.980;2023-05-10T15:02:46;16.40;99.90
52709;DHT22;38606;52.986;6.980;2023-05-10T15:05:12;19.00;99.90
52709;DHT22;38606;52.986;6.980;2023-05-10T15:07:38;16.80;99.90
52709;DHT22;38606;52.986;6.980;2023-05-10T15:10:04;16.60;99.90
52709;DHT22;38606;52.986;6.980;2023-05-10T15:12:30;16.60;99.90
52709;DHT22;38606;52.986;6.980;2023-05-10T15:14:56;16.60;99.90
52709;DHT22;38606;52.986;6.980;2023-05-10T15:17:22;16.70;99.90
52709;DHT22;38606;52.986;6.980;2023-05-10T15:19:48;16.40;99.90
52709;DHT22;38606;52.986;6.980;2023-05-10T15:22:15;16.80;99.90
52709;DHT22;38606;52.986;6.980;2023-05-10T15:24:40;16.80;99.90
52709;DHT22;38606;52.986;6.980;2023-05-10T15:27:06;16.70;99.90
52709;DHT22;38606;52.986;6.980;2023-05-10T15:29:32;15.90;99.90
52709;DHT22;38606;52.986;6.980;2023-05-10T15:32:01;16.70;99.90
52709;DHT22;38606;52.986;6.980;2023-05-10T15:34:27;16.80;99.90
52709;DHT22;38606;52.986;6.980;2023-05-10T15:36:53;16.50;99.90
52709;DHT22;38606;52.986;6.980;2023-05-10T15:39:20;16.70;99.90
52709;DHT22;38606;52.986;6.980;2023-05-10T15:41:46;16.80;99.90
52709;DHT22;38606;52.986;6.980;2023-05-10T15:44:12;16.70;99.90
52709;DHT22;38606;52.986;6.980;2023-05-10T15:46:38;16.90;99.90
52709;DHT22;38606;52.986;6.980;2023-05-10T15:49:04;16.60;99.90
52709;DHT22;38606;52.986;6.980;2023-05-10T15:51:31;16.80;99.90
52709;DHT22;38606;52.986;6.980;2023-05-10T15:53:58;17.00;99.90
52709;DHT22;38606;52.986;6.980;2023-05-10T15:56:24;16.70;99.90
52709;DHT22;38606;52.986;6.980;2023-05-10T15:58:51;17.00;99.90